sensor_id;sensor_type;location;lat;lon;timestamp;temperature;humidity
34283;DHT22;20542;49.828;8.746;2022-07-05T00:00:44;17.60;99.90
34283;DHT22;20542;49.828;8.746;2022-07-05T00:03:09;17.50;99.90
34283;DHT22;20542;49.828;8.746;2022-07-05T00:05:36;17.60;99.90
34283;DHT22;20542;49.828;8.746;2022-07-05T00:08:02;17.50;99.90
34283;DHT22;20542;49.828;8.746;2022-07-05T00:10:28;17.40;99.90
34283;DHT22;20542;49.828;8.746;2022-07-05T00:12:53;17.40;99.90
34283;DHT22;20542;49.828;8.746;2022-07-05T00:15:19;17.40;99.90
34283;DHT22;20542;49.828;8.746;2022-07-05T00:17:44;17.50;99.90
34283;DHT22;20542;49.828;8.746;2022-07-05T00:20:10;17.50;99.90
34283;DHT22;20542;49.828;8.746;2022-07-05T00:22:36;17.50;99.90
34283;DHT22;20542;49.828;8.746;2022-07-05T00:25:02;17.60;99.90
34283;DHT22;20542;49.828;8.746;2022-07-05T00:27:27;17.70;99.90
34283;DHT22;20542;49.828;8.746;2022-07-05T00:29:53;17.70;99.90
34283;DHT22;20542;49.828;8.746;2022-07-05T00:32:19;17.70;99.90
34283;DHT22;20542;49.828;8.746;2022-07-05T00:34:44;17.60;99.90
34283;DHT22;20542;49.828;8.746;2022-07-05T00:37:10;17.50;99.90
34283;DHT22;20542;49.828;8.746;2022-07-05T00:39:35;17.40;99.90
34283;DHT22;20542;49.828;8.746;2022-07-05T00:42:01;17.20;99.90
34283;DHT22;20542;49.828;8.746;2022-07-05T00:44:38;17.10;99.90
34283;DHT22;20542;49.828;8.746;2022-07-05T00:47:07;16.90;99.90
34283;DHT22;20542;49.828;8.746;2022-07-05T00:49:34;16.90;99.90
34283;DHT22;20542;49.828;8.746;2022-07-05T00:52:01;17.00;99.90
34283;DHT22;20542;49.828;8.746;2022-07-05T00:54:32;17.00;99.90
34283;DHT22;20542;49.828;8.746;2022-07-05T00:56:58;17.10;99.90
34283;DHT22;20542;49.828;8.746;2022-07-05T00:59:23;17.10;99.90
34283;DHT22;20542;49.828;8.746;2022-07-05T01:01:49;17.00;99.90
34283;DHT22;20542;49.828;8.746;2022-07-05T01:04:15;16.90;99.90
34283;DHT22;20542;49.828;8.746;2022-07-05T01:06:43;17.00;99.90
34283;DHT22;20542;49.828;8.746;2022-07-05T01:09:10;16.90;99.90
34283;DHT22;20542;49.828;8.746;2022-07-05T01:11:38;16.80;99.90
34283;DHT22;20542;49.828;8.746;2022-07-05T01:14:05;16.70;99.90
34283;DHT22;20542;49.828;8.746;2022-07-05T01:16:33;16.70;99.90
34283;DHT22;20542;49.828;8.746;2022-07-05T01:18:59;16.60;99.90
34283;DHT22;20542;49.828;8.746;2022-07-05T01:21:26;16.60;99.90
34283;DHT22;20542;49.828;8.746;2022-07-05T01:23:53;16.60;99.90
34283;DHT22;20542;49.828;8.746;2022-07-05T01:26:19;16.50;99.90
34283;DHT22;20542;49.828;8.746;2022-07-05T01:28:44;16.50;99.90
34283;DHT22;20542;49.828;8.746;2022-07-05T01:31:10;16.50;99.90
34283;DHT22;20542;49.828;8.746;2022-07-05T01:33:36;16.50;99.90
34283;DHT22;20542;49.828;8.746;2022-07-05T01:36:02;16.50;99.90
34283;DHT22;20542;49.828;8.746;2022-07-05T01:38:28;16.50;99.90
34283;DHT22;20542;49.828;8.746;2022-07-05T01:40:54;16.50;99.90
34283;DHT22;20542;49.828;8.746;2022-07-05T01:43:23;16.40;99.90
34283;DHT22;20542;49.828;8.746;2022-07-05T01:45:49;16.50;99.90
34283;DHT22;20542;49.828;8.746;2022-07-05T01:48:18;16.50;99.90
34283;DHT22;20542;49.828;8.746;2022-07-05T01:50:47;16.50;99.90
34283;DHT22;20542;49.828;8.746;2022-07-05T01:53:23;16.50;99.90
34283;DHT22;20542;49.828;8.746;2022-07-05T01:55:50;16.40;99.90
34283;DHT22;20542;49.828;8.746;2022-07-05T01:58:16;16.40;99.90
34283;DHT22;20542;49.828;8.746;2022-07-05T02:00:49;16.40;99.90
34283;DHT22;20542;49.828;8.746;2022-07-05T02:03:16;16.30;99.90
34283;DHT22;20542;49.828;8.746;2022-07-05T02:05:43;16.30;99.90
34283;DHT22;20542;49.828;8.746;2022-07-05T02:08:11;16.30;99.90
34283;DHT22;20542;49.828;8.746;2022-07-05T02:10:38;16.30;99.90
34283;DHT22;20542;49.828;8.746;2022-07-05T02:13:05;16.20;99.90
34283;DHT22;20542;49.828;8.746;2022-07-05T02:15:32;16.20;99.90
34283;DHT22;20542;49.828;8.746;2022-07-05T02:17:58;16.20;99.90
34283;DHT22;20542;49.828;8.746;2022-07-05T02:20:24;16.20;99.90
34283;DHT22;20542;49.828;8.746;2022-07-05T02:22:49;16.20;99.90
34283;DHT22;20542;49.828;8.746;2022-07-05T02:25:15;16.10;99.90
34283;DHT22;20542;49.828;8.746;2022-07-05T02:27:40;16.20;99.90
34283;DHT22;20542;49.828;8.746;2022-07-05T02:30:06;16.30;99.90
34283;DHT22;20542;49.828;8.746;2022-07-05T02:32:32;16.20;99.90
34283;DHT22;20542;49.828;8.746;2022-07-05T02:34:58;16.00;99.90
34283;DHT22;20542;49.828;8.746;2022-07-05T02:37:23;15.80;99.90
34283;DHT22;20542;49.828;8.746;2022-07-05T02:39:49;15.70;99.90
34283;DHT22;20542;49.828;8.746;2022-07-05T02:42:14;15.60;99.90
34283;DHT22;20542;49.828;8.746;2022-07-05T02:44:40;15.50;99.90
34283;DHT22;20542;49.828;8.746;2022-07-05T02:47:06;15.50;99.90
34283;DHT22;20542;49.828;8.746;2022-07-05T02:49:31;15.50;99.90
34283;DHT22;20542;49.828;8.746;2022-07-05T02:51:57;15.50;99.90
34283;DHT22;20542;49.828;8.746;2022-07-05T02:54:22;15.50;99.90
34283;DHT22;20542;49.828;8.746;2022-07-05T02:56:48;15.60;99.90
34283;DHT22;20542;49.828;8.746;2022-07-05T02:59:13;15.60;99.90
34283;DHT22;20542;49.828;8.746;2022-07-05T03:01:39;15.70;99.90
34283;DHT22;20542;49.828;8.746;2022-07-05T03:04:05;15.60;99.90
34283;DHT22;20542;49.828;8.746;2022-07-05T03:06:32;15.60;99.90
34283;DHT22;20542;49.828;8.746;2022-07-05T03:08:57;15.50;99.90
34283;DHT22;20542;49.828;8.746;2022-07-05T03:11:23;15.40;99.90
34283;DHT22;20542;49.828;8.746;2022-07-05T03:13:49;15.30;99.90
34283;DHT22;20542;49.828;8.746;2022-07-05T03:16:14;15.30;99.90
34283;DHT22;20542;49.828;8.746;2022-07-05T03:18:40;15.20;99.90
34283;DHT22;20542;49.828;8.746;2022-07-05T03:21:06;15.10;99.90
34283;DHT22;20542;49.828;8.746;2022-07-05T03:23:31;15.00;99.90
34283;DHT22;20542;49.828;8.746;2022-07-05T03:25:57;15.00;99.90
34283;DHT22;20542;49.828;8.746;2022-07-05T03:28:22;15.10;99.90
34283;DHT22;20542;49.828;8.746;2022-07-05T03:30:48;15.10;99.90
34283;DHT22;20542;49.828;8.746;2022-07-05T03:33:13;15.00;99.90
34283;DHT22;20542;49.828;8.746;2022-07-05T03:35:39;14.90;99.90
34283;DHT22;20542;49.828;8.746;2022-07-05T03:38:05;14.90;99.90
34283;DHT22;20542;49.828;8.746;2022-07-05T03:40:30;14.90;99.90
34283;DHT22;20542;49.828;8.746;2022-07-05T03:42:56;14.80;99.90
34283;DHT22;20542;49.828;8.746;2022-07-05T03:45:22;14.70;99.90
34283;DHT22;20542;49.828;8.746;2022-07-05T03:47:47;14.60;99.90
34283;DHT22;20542;49.828;8.746;2022-07-05T03:50:13;14.60;99.90
34283;DHT22;20542;49.828;8.746;2022-07-05T03:52:39;14.70;99.90
34283;DHT22;20542;49.828;8.746;2022-07-05T03:55:04;14.70;99.90
34283;DHT22;20542;49.828;8.746;2022-07-05T03:57:30;14.70;99.90
34283;DHT22;20542;49.828;8.746;2022-07-05T03:59:56;14.70;99.90
34283;DHT22;20542;49.828;8.746;2022-07-05T04:02:22;14.70;99.90
34283;DHT22;20542;49.828;8.746;2022-07-05T04:04:47;14.70;99.90
34283;DHT22;20542;49.828;8.746;2022-07-05T04:07:13;14.80;99.90
34283;DHT22;20542;49.828;8.746;2022-07-05T04:09:38;14.90;99.90
34283;DHT22;20542;49.828;8.746;2022-07-05T04:12:04;15.10;99.90
34283;DHT22;20542;49.828;8.746;2022-07-05T04:14:30;15.20;99.90
34283;DHT22;20542;49.828;8.746;2022-07-05T04:16:56;15.30;99.90
34283;DHT22;20542;49.828;8.746;2022-07-05T04:19:22;15.40;99.90
34283;DHT22;20542;49.828;8.746;2022-07-05T04:21:47;15.60;99.90
34283;DHT22;20542;49.828;8.746;2022-07-05T04:24:13;15.70;99.90
34283;DHT22;20542;49.828;8.746;2022-07-05T04:26:38;15.80;99.90
34283;DHT22;20542;49.828;8.746;2022-07-05T04:29:04;15.90;99.90
34283;DHT22;20542;49.828;8.746;2022-07-05T04:31:30;16.00;99.90
34283;DHT22;20542;49.828;8.746;2022-07-05T04:33:55;16.10;99.90
34283;DHT22;20542;49.828;8.746;2022-07-05T04:36:21;16.30;99.90
34283;DHT22;20542;49.828;8.746;2022-07-05T04:38:46;16.40;99.90
34283;DHT22;20542;49.828;8.746;2022-07-05T04:41:12;16.50;99.90
34283;DHT22;20542;49.828;8.746;2022-07-05T04:43:38;16.50;99.90
34283;DHT22;20542;49.828;8.746;2022-07-05T04:46:03;16.60;99.90
34283;DHT22;20542;49.828;8.746;2022-07-05T04:48:29;16.80;99.90
34283;DHT22;20542;49.828;8.746;2022-07-05T04:50:54;16.90;99.90
34283;DHT22;20542;49.828;8.746;2022-07-05T04:53:20;17.10;99.90
34283;DHT22;20542;49.828;8.746;2022-07-05T04:55:46;17.30;99.90
34283;DHT22;20542;49.828;8.746;2022-07-05T04:58:11;17.30;99.90
34283;DHT22;20542;49.828;8.746;2022-07-05T05:00:37;17.50;99.90
34283;DHT22;20542;49.828;8.746;2022-07-05T05:03:02;17.60;99.90
34283;DHT22;20542;49.828;8.746;2022-07-05T05:05:28;17.60;99.90
34283;DHT22;20542;49.828;8.746;2022-07-05T05:07:54;17.80;99.90
34283;DHT22;20542;49.828;8.746;2022-07-05T05:10:19;17.90;99.90
34283;DHT22;20542;49.828;8.746;2022-07-05T05:12:45;17.90;99.90
34283;DHT22;20542;49.828;8.746;2022-07-05T05:15:10;18.10;99.90
34283;DHT22;20542;49.828;8.746;2022-07-05T05:17:37;18.20;99.90
34283;DHT22;20542;49.828;8.746;2022-07-05T05:20:10;18.20;99.90
34283;DHT22;20542;49.828;8.746;2022-07-05T05:22:36;18.40;99.90
34283;DHT22;20542;49.828;8.746;2022-07-05T05:25:02;18.50;99.90
34283;DHT22;20542;49.828;8.746;2022-07-05T05:27:28;18.60;99.90
34283;DHT22;20542;49.828;8.746;2022-07-05T05:29:54;18.80;99.90
34283;DHT22;20542;49.828;8.746;2022-07-05T05:32:19;19.00;99.90
34283;DHT22;20542;49.828;8.746;2022-07-05T05:34:45;19.10;99.90
34283;DHT22;20542;49.828;8.746;2022-07-05T05:37:10;19.20;99.90
34283;DHT22;20542;49.828;8.746;2022-07-05T05:39:36;19.30;99.90
34283;DHT22;20542;49.828;8.746;2022-07-05T05:42:02;19.50;99.90
34283;DHT22;20542;49.828;8.746;2022-07-05T05:44:27;19.60;99.90
34283;DHT22;20542;49.828;8.746;2022-07-05T05:46:53;19.70;99.90
34283;DHT22;20542;49.828;8.746;2022-07-05T05:49:18;19.90;99.90
34283;DHT22;20542;49.828;8.746;2022-07-05T05:51:44;20.10;99.90
34283;DHT22;20542;49.828;8.746;2022-07-05T05:54:09;20.20;99.90
34283;DHT22;20542;49.828;8.746;2022-07-05T05:56:35;20.50;99.90
34283;DHT22;20542;49.828;8.746;2022-07-05T05:59:00;20.60;99.90
34283;DHT22;20542;49.828;8.746;2022-07-05T06:01:26;20.70;99.90
34283;DHT22;20542;49.828;8.746;2022-07-05T06:03:52;20.80;99.90
34283;DHT22;20542;49.828;8.746;2022-07-05T06:06:17;20.90;99.90
34283;DHT22;20542;49.828;8.746;2022-07-05T06:08:43;21.20;99.90
34283;DHT22;20542;49.828;8.746;2022-07-05T06:11:08;21.40;99.90
34283;DHT22;20542;49.828;8.746;2022-07-05T06:13:34;21.50;99.90
34283;DHT22;20542;49.828;8.746;2022-07-05T06:15:59;21.50;99.90
34283;DHT22;20542;49.828;8.746;2022-07-05T06:18:25;21.60;99.90
34283;DHT22;20542;49.828;8.746;2022-07-05T06:20:51;21.70;99.90
34283;DHT22;20542;49.828;8.746;2022-07-05T06:23:16;22.00;99.90
34283;DHT22;20542;49.828;8.746;2022-07-05T06:25:42;22.10;99.90
34283;DHT22;20542;49.828;8.746;2022-07-05T06:28:08;22.10;99.90
34283;DHT22;20542;49.828;8.746;2022-07-05T06:30:36;22.10;99.90
34283;DHT22;20542;49.828;8.746;2022-07-05T06:33:02;22.30;99.90
34283;DHT22;20542;49.828;8.746;2022-07-05T06:35:28;22.30;99.90
34283;DHT22;20542;49.828;8.746;2022-07-05T06:38:05;22.20;99.90
34283;DHT22;20542;49.828;8.746;2022-07-05T06:40:32;22.30;99.90
34283;DHT22;20542;49.828;8.746;2022-07-05T06:43:00;22.10;99.90
34283;DHT22;20542;49.828;8.746;2022-07-05T06:45:26;22.00;99.90
34283;DHT22;20542;49.828;8.746;2022-07-05T06:48:01;22.20;99.90
34283;DHT22;20542;49.828;8.746;2022-07-05T06:50:31;22.10;99.90
34283;DHT22;20542;49.828;8.746;2022-07-05T06:52:57;22.50;99.90
34283;DHT22;20542;49.828;8.746;2022-07-05T06:55:23;22.70;99.90
34283;DHT22;20542;49.828;8.746;2022-07-05T06:57:57;22.70;99.90
34283;DHT22;20542;49.828;8.746;2022-07-05T07:00:23;23.00;99.90
34283;DHT22;20542;49.828;8.746;2022-07-05T07:02:48;23.10;99.90
34283;DHT22;20542;49.828;8.746;2022-07-05T07:05:14;23.20;99.90
34283;DHT22;20542;49.828;8.746;2022-07-05T07:07:39;23.20;99.90
34283;DHT22;20542;49.828;8.746;2022-07-05T07:10:24;23.50;99.90
34283;DHT22;20542;49.828;8.746;2022-07-05T07:12:49;23.70;99.90
34283;DHT22;20542;49.828;8.746;2022-07-05T07:15:15;23.70;99.90
34283;DHT22;20542;49.828;8.746;2022-07-05T07:17:40;24.00;99.90
34283;DHT22;20542;49.828;8.746;2022-07-05T07:20:06;24.00;99.90
34283;DHT22;20542;49.828;8.746;2022-07-05T07:22:32;24.10;99.90
34283;DHT22;20542;49.828;8.746;2022-07-05T07:24:57;24.20;99.90
34283;DHT22;20542;49.828;8.746;2022-07-05T07:27:23;24.40;99.90
34283;DHT22;20542;49.828;8.746;2022-07-05T07:29:48;24.40;99.90
34283;DHT22;20542;49.828;8.746;2022-07-05T07:32:14;24.50;99.90
34283;DHT22;20542;49.828;8.746;2022-07-05T07:34:39;24.60;99.90
34283;DHT22;20542;49.828;8.746;2022-07-05T07:37:07;24.80;99.90
34283;DHT22;20542;49.828;8.746;2022-07-05T07:39:34;25.00;99.90
34283;DHT22;20542;49.828;8.746;2022-07-05T07:42:00;25.00;99.90
34283;DHT22;20542;49.828;8.746;2022-07-05T07:44:25;25.10;99.90
34283;DHT22;20542;49.828;8.746;2022-07-05T07:46:51;25.10;99.90
34283;DHT22;20542;49.828;8.746;2022-07-05T07:49:17;25.00;99.90
34283;DHT22;20542;49.828;8.746;2022-07-05T07:51:43;25.60;99.90
34283;DHT22;20542;49.828;8.746;2022-07-05T07:54:10;25.50;99.90
34283;DHT22;20542;49.828;8.746;2022-07-05T07:56:35;25.70;99.90
34283;DHT22;20542;49.828;8.746;2022-07-05T07:59:01;25.80;99.90
34283;DHT22;20542;49.828;8.746;2022-07-05T08:01:26;26.00;99.90
34283;DHT22;20542;49.828;8.746;2022-07-05T08:03:52;26.50;99.90
34283;DHT22;20542;49.828;8.746;2022-07-05T08:06:18;26.60;99.90
34283;DHT22;20542;49.828;8.746;2022-07-05T08:08:44;26.80;99.90
34283;DHT22;20542;49.828;8.746;2022-07-05T08:11:11;27.20;99.90
34283;DHT22;20542;49.828;8.746;2022-07-05T08:13:37;27.50;99.20
34283;DHT22;20542;49.828;8.746;2022-07-05T08:16:03;27.50;99.90
34283;DHT22;20542;49.828;8.746;2022-07-05T08:18:29;27.80;99.70
34283;DHT22;20542;49.828;8.746;2022-07-05T08:21:13;28.20;98.90
34283;DHT22;20542;49.828;8.746;2022-07-05T08:23:58;27.90;98.90
34283;DHT22;20542;49.828;8.746;2022-07-05T08:26:25;27.30;98.20
34283;DHT22;20542;49.828;8.746;2022-07-05T08:28:51;27.50;98.60
34283;DHT22;20542;49.828;8.746;2022-07-05T08:31:16;27.40;98.30
34283;DHT22;20542;49.828;8.746;2022-07-05T08:33:42;27.60;98.00
34283;DHT22;20542;49.828;8.746;2022-07-05T08:36:08;27.60;97.10
34283;DHT22;20542;49.828;8.746;2022-07-05T08:38:33;27.70;96.70
34283;DHT22;20542;49.828;8.746;2022-07-05T08:41:00;28.00;97.80
34283;DHT22;20542;49.828;8.746;2022-07-05T08:43:28;27.50;98.50
34283;DHT22;20542;49.828;8.746;2022-07-05T08:45:55;27.50;97.80
34283;DHT22;20542;49.828;8.746;2022-07-05T08:48:24;27.50;97.30
34283;DHT22;20542;49.828;8.746;2022-07-05T08:50:51;27.40;96.60
34283;DHT22;20542;49.828;8.746;2022-07-05T08:53:20;27.50;97.20
34283;DHT22;20542;49.828;8.746;2022-07-05T08:55:46;27.80;97.80
34283;DHT22;20542;49.828;8.746;2022-07-05T08:58:11;28.10;96.70
34283;DHT22;20542;49.828;8.746;2022-07-05T09:00:42;28.40;95.50
34283;DHT22;20542;49.828;8.746;2022-07-05T09:03:08;28.20;95.40
34283;DHT22;20542;49.828;8.746;2022-07-05T09:05:41;27.90;95.50
34283;DHT22;20542;49.828;8.746;2022-07-05T09:08:09;27.90;95.90
34283;DHT22;20542;49.828;8.746;2022-07-05T09:10:37;28.20;95.80
34283;DHT22;20542;49.828;8.746;2022-07-05T09:13:03;28.30;95.60
34283;DHT22;20542;49.828;8.746;2022-07-05T09:15:28;28.50;95.50
34283;DHT22;20542;49.828;8.746;2022-07-05T09:17:54;28.30;95.50
34283;DHT22;20542;49.828;8.746;2022-07-05T09:20:20;28.10;95.60
34283;DHT22;20542;49.828;8.746;2022-07-05T09:22:54;28.00;95.50
34283;DHT22;20542;49.828;8.746;2022-07-05T09:25:21;28.10;95.30
34283;DHT22;20542;49.828;8.746;2022-07-05T09:30:28;27.90;96.90
34283;DHT22;20542;49.828;8.746;2022-07-05T09:33:10;27.60;95.50
34283;DHT22;20542;49.828;8.746;2022-07-05T09:35:42;27.70;96.10
34283;DHT22;20542;49.828;8.746;2022-07-05T09:38:22;27.90;95.40
34283;DHT22;20542;49.828;8.746;2022-07-05T09:40:52;28.10;95.30
34283;DHT22;20542;49.828;8.746;2022-07-05T09:43:23;28.50;93.90
34283;DHT22;20542;49.828;8.746;2022-07-05T09:45:56;28.80;93.80
34283;DHT22;20542;49.828;8.746;2022-07-05T09:48:22;28.80;92.80
34283;DHT22;20542;49.828;8.746;2022-07-05T09:50:49;28.80;93.20
34283;DHT22;20542;49.828;8.746;2022-07-05T09:53:20;28.40;94.30
34283;DHT22;20542;49.828;8.746;2022-07-05T09:56:02;28.10;93.70
34283;DHT22;20542;49.828;8.746;2022-07-05T09:58:28;28.20;93.70
34283;DHT22;20542;49.828;8.746;2022-07-05T10:00:54;27.90;93.30
34283;DHT22;20542;49.828;8.746;2022-07-05T10:03:20;28.20;93.30
34283;DHT22;20542;49.828;8.746;2022-07-05T10:05:46;28.20;93.50
34283;DHT22;20542;49.828;8.746;2022-07-05T10:08:12;28.70;94.30
34283;DHT22;20542;49.828;8.746;2022-07-05T10:10:38;29.00;93.80
34283;DHT22;20542;49.828;8.746;2022-07-05T10:13:06;28.80;92.10
34283;DHT22;20542;49.828;8.746;2022-07-05T10:15:34;29.00;92.00
34283;DHT22;20542;49.828;8.746;2022-07-05T10:18:03;29.10;91.20
34283;DHT22;20542;49.828;8.746;2022-07-05T10:23:05;29.00;90.70
34283;DHT22;20542;49.828;8.746;2022-07-05T10:25:31;29.10;92.00
34283;DHT22;20542;49.828;8.746;2022-07-05T10:27:58;29.30;90.30
34283;DHT22;20542;49.828;8.746;2022-07-05T10:30:24;29.30;90.90
34283;DHT22;20542;49.828;8.746;2022-07-05T10:32:50;29.40;90.30
34283;DHT22;20542;49.828;8.746;2022-07-05T10:35:17;29.60;88.20
34283;DHT22;20542;49.828;8.746;2022-07-05T10:37:43;29.80;87.00
34283;DHT22;20542;49.828;8.746;2022-07-05T10:40:09;30.10;90.10
34283;DHT22;20542;49.828;8.746;2022-07-05T10:43:02;30.20;86.60
34283;DHT22;20542;49.828;8.746;2022-07-05T10:45:36;30.00;89.20
34283;DHT22;20542;49.828;8.746;2022-07-05T10:50:54;30.10;88.30
34283;DHT22;20542;49.828;8.746;2022-07-05T10:53:21;30.40;85.40
34283;DHT22;20542;49.828;8.746;2022-07-05T10:58:34;30.30;82.80
34283;DHT22;20542;49.828;8.746;2022-07-05T11:06:28;30.80;81.70
34283;DHT22;20542;49.828;8.746;2022-07-05T11:11:32;29.90;87.60
34283;DHT22;20542;49.828;8.746;2022-07-05T11:14:02;30.20;85.90
34283;DHT22;20542;49.828;8.746;2022-07-05T11:16:33;29.40;85.50
34283;DHT22;20542;49.828;8.746;2022-07-05T11:19:09;29.10;87.90
34283;DHT22;20542;49.828;8.746;2022-07-05T11:21:37;28.80;87.30
34283;DHT22;20542;49.828;8.746;2022-07-05T11:24:21;28.50;87.90
34283;DHT22;20542;49.828;8.746;2022-07-05T11:26:49;28.90;88.00
34283;DHT22;20542;49.828;8.746;2022-07-05T11:29:50;29.10;89.00
34283;DHT22;20542;49.828;8.746;2022-07-05T11:32:21;29.50;89.60
34283;DHT22;20542;49.828;8.746;2022-07-05T11:34:52;29.10;89.70
34283;DHT22;20542;49.828;8.746;2022-07-05T11:37:25;29.30;90.00
34283;DHT22;20542;49.828;8.746;2022-07-05T11:42:38;29.80;86.60
34283;DHT22;20542;49.828;8.746;2022-07-05T11:45:09;30.10;86.10
34283;DHT22;20542;49.828;8.746;2022-07-05T11:47:35;30.10;83.90
34283;DHT22;20542;49.828;8.746;2022-07-05T11:50:01;30.20;84.50
34283;DHT22;20542;49.828;8.746;2022-07-05T11:52:34;29.90;81.10
34283;DHT22;20542;49.828;8.746;2022-07-05T11:55:04;30.00;81.10
34283;DHT22;20542;49.828;8.746;2022-07-05T11:57:30;29.90;82.50
34283;DHT22;20542;49.828;8.746;2022-07-05T11:59:56;29.80;82.60
34283;DHT22;20542;49.828;8.746;2022-07-05T12:02:22;29.90;83.40
34283;DHT22;20542;49.828;8.746;2022-07-05T12:04:52;29.90;83.10
34283;DHT22;20542;49.828;8.746;2022-07-05T12:07:34;30.20;84.00
34283;DHT22;20542;49.828;8.746;2022-07-05T12:10:01;30.40;82.60
34283;DHT22;20542;49.828;8.746;2022-07-05T12:12:45;30.50;82.20
34283;DHT22;20542;49.828;8.746;2022-07-05T12:15:19;30.50;80.50
34283;DHT22;20542;49.828;8.746;2022-07-05T12:17:47;30.20;81.80
34283;DHT22;20542;49.828;8.746;2022-07-05T12:20:15;30.20;80.30
34283;DHT22;20542;49.828;8.746;2022-07-05T12:22:45;30.20;79.80
34283;DHT22;20542;49.828;8.746;2022-07-05T12:25:13;30.20;81.80
34283;DHT22;20542;49.828;8.746;2022-07-05T12:27:41;30.40;80.50
34283;DHT22;20542;49.828;8.746;2022-07-05T12:30:09;30.50;83.90
34283;DHT22;20542;49.828;8.746;2022-07-05T12:32:53;30.00;80.20
34283;DHT22;20542;49.828;8.746;2022-07-05T12:35:32;29.70;81.90
34283;DHT22;20542;49.828;8.746;2022-07-05T12:40:31;29.50;81.70
34283;DHT22;20542;49.828;8.746;2022-07-05T12:45:31;30.10;81.50
34283;DHT22;20542;49.828;8.746;2022-07-05T12:47:58;30.10;81.30
34283;DHT22;20542;49.828;8.746;2022-07-05T12:50:26;30.00;80.60
34283;DHT22;20542;49.828;8.746;2022-07-05T12:53:06;29.80;79.70
34283;DHT22;20542;49.828;8.746;2022-07-05T12:55:57;29.60;80.10
34283;DHT22;20542;49.828;8.746;2022-07-05T12:58:57;29.90;80.60
34283;DHT22;20542;49.828;8.746;2022-07-05T13:03:59;30.20;80.30
34283;DHT22;20542;49.828;8.746;2022-07-05T13:06:51;30.20;79.90
34283;DHT22;20542;49.828;8.746;2022-07-05T13:09:37;30.50;80.50
34283;DHT22;20542;49.828;8.746;2022-07-05T13:14:41;30.20;83.10
34283;DHT22;20542;49.828;8.746;2022-07-05T13:17:08;30.00;81.20
34283;DHT22;20542;49.828;8.746;2022-07-05T13:19:34;30.00;80.60
34283;DHT22;20542;49.828;8.746;2022-07-05T13:22:00;30.20;78.80
34283;DHT22;20542;49.828;8.746;2022-07-05T13:24:25;30.20;80.00
34283;DHT22;20542;49.828;8.746;2022-07-05T13:26:51;29.80;78.70
34283;DHT22;20542;49.828;8.746;2022-07-05T13:29:17;29.40;79.90
34283;DHT22;20542;49.828;8.746;2022-07-05T13:31:42;29.20;80.40
34283;DHT22;20542;49.828;8.746;2022-07-05T13:34:08;29.00;81.50
34283;DHT22;20542;49.828;8.746;2022-07-05T13:36:34;28.80;82.00
34283;DHT22;20542;49.828;8.746;2022-07-05T13:38:59;29.10;81.40
34283;DHT22;20542;49.828;8.746;2022-07-05T13:41:25;29.10;80.20
34283;DHT22;20542;49.828;8.746;2022-07-05T13:43:51;29.20;80.00
34283;DHT22;20542;49.828;8.746;2022-07-05T13:46:17;29.00;81.40
34283;DHT22;20542;49.828;8.746;2022-07-05T13:48:42;28.70;79.60
34283;DHT22;20542;49.828;8.746;2022-07-05T13:51:08;28.50;80.70
34283;DHT22;20542;49.828;8.746;2022-07-05T13:53:34;28.60;80.10
34283;DHT22;20542;49.828;8.746;2022-07-05T13:56:03;29.00;81.40
34283;DHT22;20542;49.828;8.746;2022-07-05T13:58:28;29.40;80.80
34283;DHT22;20542;49.828;8.746;2022-07-05T14:00:54;29.30;79.30
34283;DHT22;20542;49.828;8.746;2022-07-05T14:03:19;29.30;79.60
34283;DHT22;20542;49.828;8.746;2022-07-05T14:05:45;29.20;79.10
34283;DHT22;20542;49.828;8.746;2022-07-05T14:08:11;29.20;80.40
34283;DHT22;20542;49.828;8.746;2022-07-05T14:10:38;29.40;79.10
34283;DHT22;20542;49.828;8.746;2022-07-05T14:13:03;29.80;79.10
34283;DHT22;20542;49.828;8.746;2022-07-05T14:15:29;30.00;77.50
34283;DHT22;20542;49.828;8.746;2022-07-05T14:17:54;30.20;77.00
34283;DHT22;20542;49.828;8.746;2022-07-05T14:20:21;30.10;77.00
34283;DHT22;20542;49.828;8.746;2022-07-05T14:22:46;29.90;76.60
34283;DHT22;20542;49.828;8.746;2022-07-05T14:25:12;30.00;77.70
34283;DHT22;20542;49.828;8.746;2022-07-05T14:27:37;29.90;77.60
34283;DHT22;20542;49.828;8.746;2022-07-05T14:30:04;30.00;76.80
34283;DHT22;20542;49.828;8.746;2022-07-05T14:32:30;30.00;76.50
34283;DHT22;20542;49.828;8.746;2022-07-05T14:34:55;30.00;77.10
34283;DHT22;20542;49.828;8.746;2022-07-05T14:37:21;29.50;76.50
34283;DHT22;20542;49.828;8.746;2022-07-05T14:39:48;29.40;77.20
34283;DHT22;20542;49.828;8.746;2022-07-05T14:42:15;29.50;77.90
34283;DHT22;20542;49.828;8.746;2022-07-05T14:44:41;29.80;76.70
34283;DHT22;20542;49.828;8.746;2022-07-05T14:47:06;29.70;77.10
34283;DHT22;20542;49.828;8.746;2022-07-05T14:49:32;29.30;76.50
34283;DHT22;20542;49.828;8.746;2022-07-05T14:51:57;29.40;76.70
34283;DHT22;20542;49.828;8.746;2022-07-05T14:54:23;29.10;77.60
34283;DHT22;20542;49.828;8.746;2022-07-05T14:56:49;29.20;77.30
34283;DHT22;20542;49.828;8.746;2022-07-05T14:59:15;29.50;77.30
34283;DHT22;20542;49.828;8.746;2022-07-05T15:01:41;29.50;75.90
34283;DHT22;20542;49.828;8.746;2022-07-05T15:04:06;29.60;76.70
34283;DHT22;20542;49.828;8.746;2022-07-05T15:06:32;29.30;75.70
34283;DHT22;20542;49.828;8.746;2022-07-05T15:08:58;29.50;75.60
34283;DHT22;20542;49.828;8.746;2022-07-05T15:11:23;29.80;76.20
34283;DHT22;20542;49.828;8.746;2022-07-05T15:13:49;29.90;75.30
34283;DHT22;20542;49.828;8.746;2022-07-05T15:16:15;29.70;76.60
34283;DHT22;20542;49.828;8.746;2022-07-05T15:18:41;29.50;75.30
34283;DHT22;20542;49.828;8.746;2022-07-05T15:21:06;29.30;75.70
34283;DHT22;20542;49.828;8.746;2022-07-05T15:23:33;29.30;76.30
34283;DHT22;20542;49.828;8.746;2022-07-05T15:25:59;29.50;76.50
34283;DHT22;20542;49.828;8.746;2022-07-05T15:28:25;29.20;74.10
34283;DHT22;20542;49.828;8.746;2022-07-05T15:30:51;28.70;75.80
34283;DHT22;20542;49.828;8.746;2022-07-05T15:33:18;28.40;75.80
34283;DHT22;20542;49.828;8.746;2022-07-05T15:35:44;28.50;75.20
34283;DHT22;20542;49.828;8.746;2022-07-05T15:38:10;28.60;75.50
34283;DHT22;20542;49.828;8.746;2022-07-05T15:40:35;28.60;75.00
34283;DHT22;20542;49.828;8.746;2022-07-05T15:43:01;28.50;75.70
34283;DHT22;20542;49.828;8.746;2022-07-05T15:45:27;28.50;76.00
34283;DHT22;20542;49.828;8.746;2022-07-05T15:47:53;28.90;76.30
34283;DHT22;20542;49.828;8.746;2022-07-05T15:50:19;28.90;75.20
34283;DHT22;20542;49.828;8.746;2022-07-05T15:52:44;28.90;74.80
34283;DHT22;20542;49.828;8.746;2022-07-05T15:55:10;28.80;76.40
34283;DHT22;20542;49.828;8.746;2022-07-05T15:57:37;28.70;75.90
34283;DHT22;20542;49.828;8.746;2022-07-05T16:00:03;28.60;78.10
34283;DHT22;20542;49.828;8.746;2022-07-05T16:02:29;28.80;77.10